Boston, Massachusetts
Traffic Map
Current Weather Conditions
Boston, Massachusetts
Broken Clouds
Broken Clouds

Feels Like: 1°
Wind Chill: Ceiling: 25000
Heat Index: Visibility: 10mi
Dew Point: -9° Wind: 15mph
Humidity: 34% Direction: 240° (WSW)
Pressure: 30.28in Gusts: 0mph
Raw Report DataKBOS 162054Z 24013KT 10SM FEW100 BKN250 06/M09 A3028 RMK AO2 SLP251 T00561094 56013 $
Traffic Incident Summary
Active as of:
Severity:
Category:
InformationThere was an issue retrieving the traffic information for this location. Please try a different location or try again shortly.
Advertisements
Track Severe Weather on mobile